Dubrovnik, Hrvatska

10:34 PM CEST on Svibanj 22, 2015 (GMT +0200)
Cilipi | | Change Station
CLOSE
Current Station
Zračna luka
Location: Dubrovnik,
Visina: 541 ft
Nearby Weather Stations

Elev 541 ft 42.56 °N, 18.27 °E | Updated 4 minutes ago

Partly Cloudy
Djelomična naoblaka
59 °F
Feels Like 59 °F
S
5
Vjetar Varijabla smjera vjetra Vjetar from ISI

Danas
High -- | Low -- °F
--% Chance of Precip.
Jučer
High -- | Low -- °F
Precip. -- u
5:18 AM 8:08 PM
Prva četvrt, 24% visible
Pritisak 29.83 u
Vidljivost 6.2 milja
Oblaci Few 3000 ft
Točka rose 54 °F
Vlažnost 82%
Kiša 0.00 u
Visina snijega Not available.
UV 0 od 12
Pollen Not available.
Kvalitet zraka Not available.
Flu Activity Not available.
METAR LDDU 222030Z 06004KT 010V120 9999 FEW030 15/12 Q1010 NOSIG

More Conditions Fewer Conditions

Pritisak 29.83 u
Vidljivost 6.2 milja
Oblaci Few 3000 ft
Točka rose 54 °F
Vlažnost 82%
Kiša 0.00 u
Visina snijega Not available.
UV 0 od 12
Pollen Not available.
Kvalitet zraka Not available.
Flu Activity Not available.
METAR LDDU 222030Z 06004KT 010V120 9999 FEW030 15/12 Q1010 NOSIG

More Conditions Fewer Conditions

10-Day Weather Forecast

Almanac

Astronomija

May. 22, 2015 Izlazak Zalazak
Trenutno vrijeme
Civilni sumrak
Nautički sumrak
Astronomski sumrak
Moon
Duljina trajanja vidljive svjetlosti
Duljina dana
Tomorrow will be .
, % of the Moon is Illuminated

Današnji ekstremi

Country Highs Country Lows

Community

WunderPhotos

Upload Photos

1,823,288 photos uploaded!

WunderBlogs® & News

Nearby

Kvalitet zraka

  Kvalitet zraka AQ Index Zagadjenje
Not available.

Visina snijega

Station Depth Visina

Earthquake Activity

Grad Distance Mag. Time & Date
Minimum magnitude displayed is 2.5.

Coastal Water Temperatures

Mjesto Temperatura

Stations

Nearby Weather Stations

Lokacija stanice Temp. Subjektivni osjećaj Točka rose Vlažnost Vjetar Precip. Elev Ažurirano Tip